Airport ICAO


04:52 UTC

5°C

Overcast


An affordable passengers' Moving Map for your aircraft. Made for the iPad and the iPhone
More information here

LFMC Le Cannet


Le Luc FRANCE   VFR


METAR LFMC 220430Z AUTO 00000KT 7000 FEW004 OVC014 05/04 Q1026 0h22min





NOTAMS

OPEN